• Join FlightAware (Why Join?)
  • Login
  • US Flag 
02:55AM EDT


 

Airport Tracker/Info


-or-


 

Live Flight TrackerFlight Track Log ✈ AWI3551 ✈ 29-Jun-2013 ✈ KALB - KDCA

Flight Track Log - Related Links

Times and Time Zones

All times are in EDT time to prevent confusion due to time zone crossing. See the AWI3551 flight status page for this flight to view local times or setup timezone preferences in your user account.

Time Position Orientation Groundspeed Altitude Reporting Facility
EDT Latitude Longitude Course Direction KTS MPH feet Rate Location/Type
08:03AM 42.7319 -73.8081 172° South 162 186 1,100  Level Boston Center
08:04AM 42.6881 -73.8186 190° South 194 223 3,000 2,340 Climbing Boston Center
08:05AM 42.7222 -73.9039 299° West 224 258 6,500 2,400 Climbing Boston Center
08:06AM 42.5253 -74.0007 171° South  Level Estimated
08:06AM 42.7653 -73.9672 313° West 224 258 8,900  Level Boston Center
08:07AM 42.4506 -74.0667 180° South  Level Estimated
08:07AM 42.8039 -74.0333 309° West 224 258 11,400  Level Boston Center
08:08AM 42.3759 -74.1324 172° South  Level Estimated
08:08AM 42.8006 -74.1322 267° West 221 254 12,900  Level Boston Center
08:09AM 42.7436 -74.1731 208° Southwest 222 255 13,900 1,080 Climbing Boston Center
08:10AM 42.6608 -74.1256 157° South 255 293 15,100 1,140 Climbing Boston Center
08:11AM 42.5867 -74.0814 156° South 307 353 16,200 1,740 Climbing Boston Center
08:12AM 42.4936 -74.0281 157° South 332 382 18,600 1,920 Climbing Boston Center
08:13AM 42.4211 -73.9897 159° South 327 376 20,100 1,440 Climbing Boston Center
08:14AM 42.3364 -73.9400 157° South 332 382 21,500 1,440 Climbing Boston Center
08:15AM 42.2514 -73.8875 155° Southeast 332 382 23,000 1,200 Climbing Boston Center
08:16AM 42.1667 -73.8378 156° South 332 382 24,000 1,140 Climbing Boston Center
08:17AM 42.0797 -73.7911 158° South 332 382 25,300 660 Climbing Boston Center
08:18AM 41.9919 -73.8200 194° South 314 361 25,400 300 Climbing Boston Center
08:19AM 41.9039 -73.8628 200° South 319 367 26,000 180 Climbing Boston Center
08:21AM 41.7183 -73.9531 200° South 332 382 26,000  Level New York Center
08:22AM 41.6361 -73.9936 200° South 332 382 26,000  Level New York Center
08:23AM 41.5517 -74.0367 201° Southwest 332 382 26,000  Level New York Center
08:24AM 41.4608 -74.0792 199° South 332 382 26,000  Level New York Center
08:25AM 41.3703 -74.1217 199° South 338 389 26,000  Level New York Center
08:26AM 41.2814 -74.1669 201° Southwest 343 395 26,000  Level New York Center
08:27AM 41.1969 -74.2067 199° South 343 395 26,000  Level New York Center
08:28AM 41.1083 -74.2464 199° South 351 404 26,000  Level New York Center
08:29AM 41.0239 -74.2886 201° Southwest 346 398 26,000  Level New York Center
08:30AM 40.9392 -74.3283 200° South 335 386 26,000  Level New York Center
08:31AM 40.8547 -74.3678 199° South 330 380 26,000  Level New York Center
08:32AM 40.7739 -74.4264 209° Southwest 330 380 26,000  Level New York Center
08:33AM 40.7167 -74.5167 230° Southwest 321 369 26,000  Level New York Center
08:34AM 40.6617 -74.6119 233° Southwest 327 376 26,000  Level New York Center
08:35AM 40.6086 -74.7075 234° Southwest 332 382 26,000  Level New York Center
08:36AM 40.5342 -74.8097 226° Southwest 343 395 26,000 -120 Level New York Center
08:37AM 40.4706 -74.9014 228° Southwest 349 402 25,800 -360 Descending New York Center
08:38AM 40.4047 -74.9956 227° Southwest 354 407 25,300 -540 Descending New York Center
08:39AM 40.3389 -75.0869 227° Southwest 354 407 24,800 -540 Descending New York Center
08:40AM 40.2747 -75.1836 229° Southwest 354 407 24,300 -540 Descending New York Center
08:41AM 40.2069 -75.2744 226° Southwest 354 407 23,800 -540 Descending New York Center
08:42AM 40.1428 -75.3706 229° Southwest 359 413 23,300 -540 Descending New York Center
08:43AM 40.0722 -75.4664 226° Southwest 365 420 22,800 -540 Descending New York Center
08:44AM 40.0039 -75.5594 226° Southwest 365 420 22,300 -420 Descending New York Center
08:45AM 39.9353 -75.6575 228° Southwest 365 420 22,000 -300 Descending New York Center
08:46AM 39.8747 -75.7589 232° Southwest 365 420 21,800 -480 Descending New York Center
08:47AM 39.8119 -75.8569 230° Southwest 360 414 21,100 -720 Descending New York Center
08:49AM 39.7167 -76.0167 232° Southwest 345 397 20,000 -840 Descending Potomac TRACON
08:50AM 39.6500 -76.1000 224° Southwest 346 398 19,000 -1,980 Descending Potomac TRACON
08:51AM 39.5833 -76.2167 233° Southwest 328 377 15,900 -2,460 Descending Potomac TRACON
08:52AM 39.5333 -76.3000 232° Southwest 326 375 13,900 -2,040 Descending Potomac TRACON
08:53AM 39.4667 -76.3833 224° Southwest 321 369 12,000 -1,080 Descending Potomac TRACON
08:54AM 39.4000 -76.4667 224° Southwest 311 358 11,800 -600 Descending Potomac TRACON
08:55AM 39.3500 -76.5167 218° Southwest 303 349 10,900 -960 Descending Potomac TRACON
08:56AM 39.2833 -76.5667 210° Southwest 271 312 10,000 -480 Descending Potomac TRACON
08:57AM 39.2167 -76.6167 210° Southwest 269 310 10,000  Level Potomac TRACON
08:58AM 39.1667 -76.6667 218° Southwest 269 310 10,000  Level Potomac TRACON
08:59AM 39.1000 -76.7500 224° Southwest 264 304 10,000  Level Potomac TRACON
09:00AM 39.0500 -76.8167 226° Southwest 265 305 10,000 -120 Level Potomac TRACON
09:01AM 39.0000 -76.8667 218° Southwest 270 311 9,800 -900 Descending Potomac TRACON
09:02AM 38.9667 -76.9500 243° Southwest 272 313 8,400 -1,440 Descending Potomac TRACON
09:03AM 38.9833 -77.0333 284° West 263 303 7,100 -1,320 Descending Potomac TRACON
09:04AM 39.0333 -77.1000 314° West 255 293 6,000 -600 Descending Potomac TRACON
09:05AM 39.0667 -77.1500 311° West 196 226 6,000  Level Potomac TRACON
09:06AM 39.1000 -77.1833 322° Northwest 185 213 6,000 -120 Level Potomac TRACON
09:07AM 39.1500 -77.2500 314° West 187 215 5,800 -480 Descending Potomac TRACON
09:08AM 39.1167 -77.2667 201° Southwest 198 228 5,000 -600 Descending Potomac TRACON
09:09AM 39.0667 -77.2167 142° Southeast 196 226 4,600 -360 Descending Potomac TRACON
09:10AM 39.0333 -77.1833 142° Southeast 192 221 4,400 -240 Descending Potomac TRACON